Time;durP1;ratioP1;P1;durP2;ratioP2;P2;SDS_P1;SDS_P2;PMS_P1;PMS_P2;Temp;Humidity;BMP_temperature;BMP_pressure;BME280_temperature;BME280_humidity;BME280_pressure;Samples;Min_cycle;Max_cycle;Signal;HPM_P1;HPM_P2
2022/12/30 00:02:06;;;;;;;8.77;1.73;;;9.60;99.90;;;;;;5010676;28;20210;-71
2022/12/30 00:04:32;;;;;;;2.70;1.03;;;9.50;99.90;;;;;;5010663;28;20631;-73
2022/12/30 00:07:00;;;;;;;2.30;1.10;;;9.50;99.90;;;;;;5006325;28;20248;-73
2022/12/30 00:09:26;;;;;;;4.87;1.20;;;9.50;99.90;;;;;;5004712;28;20640;-74
2022/12/30 00:11:51;;;;;;;3.70;1.30;;;9.50;99.90;;;;;;5008939;28;20264;-73
2022/12/30 00:33:55;;;;;;;3.73;1.33;;;9.50;99.90;;;;;;5008629;28;20919;-74
2022/12/30 00:36:23;;;;;;;3.37;1.03;;;9.50;99.90;;;;;;5004758;28;20212;-74
2022/12/30 00:38:49;;;;;;;3.17;1.27;;;9.40;99.90;;;;;;5010051;28;20177;-73
2022/12/30 00:43:58;;;;;;;2.50;1.23;;;9.40;99.90;;;;;;5005543;28;20227;-74
2022/12/30 00:46:25;;;;;;;3.10;1.20;;;9.40;99.90;;;;;;5008877;28;20224;-73
2022/12/30 00:57:04;;;;;;;9.10;1.53;;;9.30;99.90;;;;;;5003307;28;20559;-73
2022/12/30 00:59:29;;;;;;;3.83;1.33;;;9.30;99.90;;;;;;5009886;28;20201;-73
2022/12/30 01:01:55;;;;;;;4.67;1.50;;;9.30;99.90;;;;;;5008104;28;20201;-75
2022/12/30 01:04:21;;;;;;;6.47;1.43;;;9.30;99.90;;;;;;5007737;28;20213;-73
2022/12/30 01:06:46;;;;;;;4.73;1.43;;;9.30;99.90;;;;;;5007773;28;20244;-74
2022/12/30 01:09:12;;;;;;;3.20;1.43;;;9.30;99.90;;;;;;5008165;28;20201;-73
2022/12/30 01:11:37;;;;;;;6.53;1.43;;;9.30;99.90;;;;;;5007837;28;20169;-74
2022/12/30 01:14:03;;;;;;;6.00;2.03;;;9.30;99.90;;;;;;5009008;28;20197;-73
2022/12/30 01:16:29;;;;;;;7.43;1.43;;;9.30;99.90;;;;;;5007640;28;20197;-73
2022/12/30 01:18:55;;;;;;;9.50;1.97;;;9.20;99.90;;;;;;5006852;28;20219;-72
2022/12/30 01:21:21;;;;;;;4.43;1.07;;;9.20;99.90;;;;;;5006234;28;20181;-73
2022/12/30 01:23:47;;;;;;;4.03;1.03;;;9.20;99.90;;;;;;5007903;28;20595;-73
2022/12/30 01:26:13;;;;;;;5.80;1.20;;;9.20;99.90;;;;;;5008334;28;20228;-73
2022/12/30 01:28:39;;;;;;;8.47;1.30;;;9.10;99.90;;;;;;5007072;28;20201;-74
2022/12/30 01:31:07;;;;;;;5.67;1.47;;;9.10;99.90;;;;;;5004543;28;20347;-72
2022/12/30 01:33:33;;;;;;;5.10;1.50;;;9.10;99.90;;;;;;5010367;28;20252;-73
2022/12/30 01:35:59;;;;;;;10.23;1.50;;;9.10;99.90;;;;;;5003270;28;20656;-74
2022/12/30 01:38:25;;;;;;;6.97;1.83;;;9.10;99.90;;;;;;5007046;28;20216;-72
2022/12/30 01:40:50;;;;;;;6.43;1.80;;;9.00;99.90;;;;;;5003927;28;20201;-73
2022/12/30 01:43:17;;;;;;;5.00;1.40;;;9.00;99.90;;;;;;5010020;28;20271;-73
2022/12/30 01:45:48;;;;;;;5.17;1.47;;;9.00;99.90;;;;;;5006477;28;20201;-73
2022/12/30 01:48:29;;;;;;;7.93;1.60;;;9.00;99.90;;;;;;5006028;28;20280;-74
2022/12/30 01:50:58;;;;;;;8.00;1.47;;;9.00;99.90;;;;;;5003864;28;20225;-74
2022/12/30 01:53:35;;;;;;;6.50;1.60;;;8.90;99.90;;;;;;5008544;28;20201;-74
2022/12/30 01:56:10;;;;;;;3.83;1.60;;;8.90;99.90;;;;;;5002988;28;20205;-71
2022/12/30 01:58:43;;;;;;;5.27;1.30;;;8.90;99.90;;;;;;5007466;28;20208;-73
2022/12/30 02:01:09;;;;;;;3.73;1.37;;;8.80;99.90;;;;;;5005497;28;20260;-73
2022/12/30 02:03:39;;;;;;;7.83;1.50;;;8.80;99.90;;;;;;5004753;28;20730;-73
2022/12/30 02:06:06;;;;;;;5.70;1.17;;;8.80;99.90;;;;;;5008578;28;20224;-72
2022/12/30 02:08:34;;;;;;;3.70;1.30;;;8.80;99.90;;;;;;5051853;23;20704;-73
2022/12/30 02:11:03;;;;;;;4.20;1.53;;;8.80;99.90;;;;;;5063745;28;20203;-73
2022/12/30 02:13:29;;;;;;;4.23;1.77;;;8.80;99.90;;;;;;5043243;28;20203;-73
2022/12/30 02:16:37;;;;;;;8.07;1.77;;;8.80;99.90;;;;;;5065461;28;20209;-72
2022/12/30 02:19:20;;;;;;;5.30;1.50;;;8.70;99.90;;;;;;5036963;28;20681;-72
2022/12/30 02:22:23;;;;;;;8.03;1.30;;;8.80;99.90;;;;;;5043652;28;20204;-73
2022/12/30 02:25:15;;;;;;;3.10;1.67;;;8.70;99.90;;;;;;5061095;28;20278;-73
2022/12/30 02:28:17;;;;;;;7.53;1.77;;;8.70;99.90;;;;;;5041502;28;20241;-73
2022/12/30 02:31:13;;;;;;;8.63;1.83;;;8.70;99.90;;;;;;5046491;28;20221;-73
2022/12/30 02:34:00;;;;;;;4.27;1.70;;;8.80;99.90;;;;;;5044498;28;20206;-72
2022/12/30 02:36:49;;;;;;;8.07;1.90;;;8.80;99.90;;;;;;5047123;28;20698;-73
2022/12/30 02:39:37;;;;;;;5.33;1.43;;;8.70;99.90;;;;;;5042184;28;20239;-71
2022/12/30 02:45:26;;;;;;;5.13;1.97;;;8.70;99.90;;;;;;5045879;28;20203;-72
2022/12/30 02:48:01;;;;;;;4.70;1.23;;;8.70;99.90;;;;;;5043170;28;20197;-73
2022/12/30 02:53:18;;;;;;;10.33;2.23;;;8.70;99.90;;;;;;5040240;28;20745;-73
2022/12/30 02:55:44;;;;;;;6.67;1.57;;;8.70;99.90;;;;;;5046266;28;20199;-74
2022/12/30 02:58:10;;;;;;;3.43;1.53;;;8.70;99.90;;;;;;5045854;28;20277;-74
2022/12/30 03:04:23;;;;;;;6.00;1.77;;;8.70;99.90;;;;;;5047332;28;20221;-74
2022/12/30 03:07:10;;;;;;;5.13;1.37;;;8.70;99.90;;;;;;5039970;28;20214;-74
2022/12/30 03:12:49;;;;;;;6.93;1.70;;;8.70;99.90;;;;;;5025196;28;20298;-74
2022/12/30 03:15:19;;;;;;;7.00;2.00;;;8.60;99.90;;;;;;5043034;28;20168;-73
2022/12/30 03:17:47;;;;;;;3.77;1.17;;;8.60;99.90;;;;;;5048705;28;20191;-74
2022/12/30 03:20:20;;;;;;;6.60;2.00;;;8.50;99.90;;;;;;5039175;28;20258;-74
2022/12/30 03:28:21;;;;;;;7.77;1.63;;;8.40;99.90;;;;;;5045138;28;20571;-74
2022/12/30 03:31:01;;;;;;;8.80;1.73;;;8.40;99.90;;;;;;5046701;28;20219;-73
2022/12/30 03:33:31;;;;;;;5.07;1.80;;;8.40;99.90;;;;;;5043382;28;20164;-74
2022/12/30 03:36:08;;;;;;;9.40;1.63;;;8.40;99.90;;;;;;5045374;28;20195;-73
2022/12/30 03:38:37;;;;;;;6.07;1.50;;;8.30;99.90;;;;;;5039428;28;20211;-74
2022/12/30 03:41:04;;;;;;;5.97;1.60;;;8.30;99.90;;;;;;5041696;28;20707;-73
2022/12/30 03:43:31;;;;;;;6.90;2.17;;;8.30;99.90;;;;;;5046447;28;20207;-73
2022/12/30 03:45:57;;;;;;;8.10;2.30;;;8.20;99.90;;;;;;5044388;28;20258;-73
2022/12/30 03:48:23;;;;;;;8.37;2.43;;;8.20;99.90;;;;;;5041834;28;20200;-72
2022/12/30 03:50:48;;;;;;;6.37;1.83;;;8.30;99.90;;;;;;5046735;28;20286;-74
2022/12/30 03:53:14;;;;;;;8.57;1.83;;;8.30;99.90;;;;;;5045800;28;20279;-73
2022/12/30 03:55:39;;;;;;;5.30;1.67;;;8.30;99.90;;;;;;5044877;28;20187;-74
2022/12/30 03:58:05;;;;;;;8.60;2.07;;;8.30;99.90;;;;;;5050102;28;20208;-74
2022/12/30 04:00:32;;;;;;;8.53;1.93;;;8.30;99.90;;;;;;5045777;28;20200;-73
2022/12/30 04:02:57;;;;;;;7.47;2.13;;;8.30;99.90;;;;;;5048099;28;20298;-73
2022/12/30 04:05:23;;;;;;;7.60;1.73;;;8.30;99.90;;;;;;5051688;28;20282;-74
2022/12/30 04:07:49;;;;;;;5.93;1.77;;;8.30;99.90;;;;;;5047711;28;20206;-71
2022/12/30 04:10:14;;;;;;;3.13;1.50;;;8.40;99.90;;;;;;5046296;28;20682;-74
2022/12/30 04:12:40;;;;;;;10.80;1.83;;;8.40;99.90;;;;;;5048491;28;20207;-74
2022/12/30 04:15:06;;;;;;;6.73;2.13;;;8.30;99.90;;;;;;5066341;28;20187;-73
2022/12/30 04:17:32;;;;;;;7.00;1.70;;;8.30;99.90;;;;;;5047476;28;20212;-73
2022/12/30 04:19:57;;;;;;;6.00;1.90;;;8.30;99.90;;;;;;5046620;28;20203;-73
2022/12/30 04:22:23;;;;;;;5.20;2.00;;;8.30;99.90;;;;;;5045912;28;20196;-74
2022/12/30 04:24:48;;;;;;;8.40;2.60;;;8.20;99.90;;;;;;5050255;28;20700;-73
2022/12/30 04:27:14;;;;;;;8.23;2.10;;;8.20;99.90;;;;;;5045384;28;20176;-73
2022/12/30 04:29:40;;;;;;;6.87;1.60;;;8.10;99.90;;;;;;5067247;28;20226;-74
2022/12/30 04:32:05;;;;;;;5.77;1.83;;;8.10;99.90;;;;;;5050061;28;20694;-72
2022/12/30 04:34:31;;;;;;;6.57;1.70;;;8.10;99.90;;;;;;5045950;28;20216;-74
2022/12/30 04:36:56;;;;;;;7.07;1.70;;;8.10;99.90;;;;;;5047495;28;20199;-73
2022/12/30 04:39:22;;;;;;;12.90;2.00;;;8.00;99.90;;;;;;5048100;28;20302;-73
2022/12/30 04:41:48;;;;;;;5.63;1.57;;;8.10;99.90;;;;;;5046687;28;20727;-72
2022/12/30 04:44:13;;;;;;;6.87;1.80;;;8.00;99.90;;;;;;5047302;28;20208;-73
2022/12/30 04:46:39;;;;;;;8.23;1.77;;;8.00;99.90;;;;;;5047765;28;20565;-73
2022/12/30 04:49:05;;;;;;;10.43;2.07;;;8.00;99.90;;;;;;5065011;28;20273;-74
2022/12/30 04:51:30;;;;;;;8.03;1.90;;;8.00;99.90;;;;;;5049158;28;20203;-74
2022/12/30 04:53:56;;;;;;;4.80;2.03;;;8.00;99.90;;;;;;5047819;28;20178;-73
2022/12/30 04:56:22;;;;;;;7.63;2.23;;;8.00;99.90;;;;;;5048259;28;20200;-73
2022/12/30 04:58:47;;;;;;;6.37;2.00;;;8.00;99.90;;;;;;5066829;28;20223;-73
2022/12/30 05:01:13;;;;;;;7.17;1.63;;;8.00;99.90;;;;;;5044308;28;20258;-73
2022/12/30 05:03:38;;;;;;;7.20;1.70;;;8.00;99.90;;;;;;5066785;28;20203;-73
2022/12/30 05:06:04;;;;;;;8.53;1.43;;;8.00;99.90;;;;;;5048739;28;20176;-73
2022/12/30 05:08:30;;;;;;;8.77;1.73;;;8.00;99.90;;;;;;5047974;28;20697;-74
2022/12/30 05:10:56;;;;;;;7.67;1.90;;;8.00;99.90;;;;;;5046116;28;20306;-74
2022/12/30 05:13:21;;;;;;;7.17;1.67;;;8.00;99.90;;;;;;5047154;28;20212;-74
2022/12/30 05:15:47;;;;;;;5.80;1.60;;;7.90;99.90;;;;;;5045402;28;20211;-74
2022/12/30 05:18:13;;;;;;;6.90;1.77;;;7.90;99.90;;;;;;5047140;28;20195;-74
2022/12/30 05:20:38;;;;;;;5.00;1.63;;;7.80;99.90;;;;;;5047345;28;20167;-74
2022/12/30 05:26:13;;;;;;;5.47;2.27;;;7.80;99.90;;;;;;5044234;28;20211;-74
2022/12/30 05:28:34;;;;;;;8.40;2.03;;;7.80;99.90;;;;;;5043419;28;20210;-73
2022/12/30 05:31:00;;;;;;;6.53;1.77;;;7.70;99.90;;;;;;5064296;28;20204;-73
2022/12/30 05:33:25;;;;;;;7.70;2.00;;;7.60;99.90;;;;;;5046966;28;20308;-73
2022/12/30 05:35:51;;;;;;;6.57;2.20;;;7.60;99.90;;;;;;5045581;28;20255;-74
2022/12/30 05:38:16;;;;;;;8.90;2.13;;;7.50;99.90;;;;;;5046440;28;20748;-74
2022/12/30 05:40:42;;;;;;;8.80;1.60;;;7.50;99.90;;;;;;5042996;28;20191;-73
2022/12/30 05:43:07;;;;;;;7.50;1.93;;;7.50;99.90;;;;;;5043246;28;20572;-74
2022/12/30 05:45:33;;;;;;;8.07;1.87;;;7.40;99.90;;;;;;5048828;28;20204;-74
2022/12/30 05:47:59;;;;;;;6.27;1.93;;;7.40;99.90;;;;;;5045279;28;20556;-74
2022/12/30 05:50:24;;;;;;;10.30;2.20;;;7.30;99.90;;;;;;5044106;28;20242;-74
2022/12/30 05:52:50;;;;;;;4.33;1.70;;;7.20;99.90;;;;;;5048843;28;20215;-74
2022/12/30 05:55:15;;;;;;;2.90;1.20;;;7.20;99.90;;;;;;5044195;28;20200;-74
2022/12/30 05:57:41;;;;;;;4.80;1.63;;;7.20;99.90;;;;;;5046356;28;20261;-74
2022/12/30 06:00:07;;;;;;;7.83;1.70;;;7.20;99.90;;;;;;5046571;28;20179;-73
2022/12/30 06:02:33;;;;;;;8.37;2.17;;;7.20;99.90;;;;;;5049387;28;20568;-74
2022/12/30 06:04:59;;;;;;;8.77;1.97;;;7.20;99.90;;;;;;5046725;28;20695;-74
2022/12/30 06:07:25;;;;;;;8.63;2.33;;;7.20;99.90;;;;;;5066488;28;20203;-73
2022/12/30 06:09:50;;;;;;;6.37;1.67;;;7.10;99.90;;;;;;5066453;28;20234;-73
2022/12/30 06:12:16;;;;;;;5.70;1.47;;;7.10;99.90;;;;;;5066625;28;20198;-73
2022/12/30 06:14:41;;;;;;;4.27;1.30;;;7.10;99.90;;;;;;5066899;28;20676;-73
2022/12/30 06:17:07;;;;;;;10.93;2.20;;;7.10;99.90;;;;;;5063074;28;20565;-73
2022/12/30 06:19:33;;;;;;;6.23;1.43;;;7.10;99.90;;;;;;5067751;28;20272;-72
2022/12/30 06:21:58;;;;;;;4.17;1.80;;;7.10;99.90;;;;;;5048055;28;20195;-72
2022/12/30 06:24:24;;;;;;;5.43;1.60;;;7.00;99.90;;;;;;5064744;28;20203;-73
2022/12/30 06:26:49;;;;;;;6.70;2.00;;;7.00;99.90;;;;;;5069043;28;20628;-72
2022/12/30 06:29:15;;;;;;;10.57;2.10;;;6.90;99.90;;;;;;5059598;28;20203;-71
2022/12/30 06:31:41;;;;;;;7.47;2.60;;;6.90;99.90;;;;;;5066519;28;20198;-73
2022/12/30 06:34:06;;;;;;;5.83;1.70;;;6.90;99.90;;;;;;5066881;28;20203;-71
2022/12/30 06:36:32;;;;;;;8.03;1.93;;;6.90;99.90;;;;;;5045009;28;20207;-73
2022/12/30 06:38:58;;;;;;;5.40;1.70;;;6.80;99.90;;;;;;5066559;28;20198;-73
2022/12/30 06:41:23;;;;;;;6.93;2.07;;;6.90;99.90;;;;;;5047947;28;20203;-74
2022/12/30 06:43:49;;;;;;;5.70;1.83;;;6.90;99.90;;;;;;5064903;28;20205;-73
2022/12/30 06:46:15;;;;;;;5.93;1.40;;;6.80;99.90;;;;;;5066842;28;20211;-72
2022/12/30 06:48:40;;;;;;;4.70;1.90;;;6.70;99.90;;;;;;5048584;28;20354;-72
2022/12/30 06:51:06;;;;;;;6.70;1.73;;;6.80;99.90;;;;;;5062838;28;20183;-72
2022/12/30 06:53:32;;;;;;;3.90;1.50;;;6.80;99.90;;;;;;5050725;28;20190;-73
2022/12/30 06:55:58;;;;;;;8.00;2.07;;;6.70;99.90;;;;;;5062138;28;20191;-73
2022/12/30 06:58:23;;;;;;;9.37;2.07;;;6.80;99.90;;;;;;5064794;28;20203;-73
2022/12/30 07:00:49;;;;;;;4.83;1.60;;;6.70;99.90;;;;;;5067764;28;20199;-73
2022/12/30 07:03:15;;;;;;;7.07;2.07;;;6.70;99.90;;;;;;5060638;28;20214;-73
2022/12/30 07:05:41;;;;;;;12.67;1.97;;;6.70;99.90;;;;;;5067175;28;20163;-73
2022/12/30 07:08:06;;;;;;;5.87;1.70;;;6.60;99.90;;;;;;5066357;28;20220;-72
2022/12/30 07:10:32;;;;;;;7.80;1.70;;;6.60;99.90;;;;;;5044257;28;20235;-73
2022/12/30 07:12:58;;;;;;;6.90;1.93;;;6.60;99.90;;;;;;5066247;28;20206;-73
2022/12/30 07:15:24;;;;;;;8.20;1.83;;;6.60;99.90;;;;;;5066362;28;20262;-73
2022/12/30 07:17:49;;;;;;;6.10;1.90;;;6.60;99.90;;;;;;5065317;28;20190;-73
2022/12/30 07:20:17;;;;;;;5.73;1.53;;;6.60;99.90;;;;;;5065743;28;20206;-73
2022/12/30 07:22:43;;;;;;;7.80;1.70;;;6.70;99.90;;;;;;5062951;28;20274;-73
2022/12/30 07:25:09;;;;;;;8.57;2.10;;;6.60;99.90;;;;;;5049807;28;20211;-73
2022/12/30 07:27:35;;;;;;;7.63;2.00;;;6.60;99.90;;;;;;5071341;28;20217;-73
2022/12/30 07:30:01;;;;;;;8.87;2.33;;;6.60;99.90;;;;;;5065244;28;20328;-73
2022/12/30 07:32:27;;;;;;;7.83;1.80;;;6.60;99.90;;;;;;5069049;28;20195;-73
2022/12/30 07:34:53;;;;;;;6.23;2.10;;;6.60;99.90;;;;;;5072322;28;20277;-73
2022/12/30 07:37:18;;;;;;;5.57;1.83;;;6.60;99.90;;;;;;5046999;28;20215;-72
2022/12/30 07:39:44;;;;;;;8.10;2.20;;;6.50;99.90;;;;;;5069465;28;20679;-73
2022/12/30 07:42:09;;;;;;;12.10;1.90;;;6.60;99.90;;;;;;5052598;28;20170;-73
2022/12/30 07:44:37;;;;;;;8.40;1.73;;;6.60;99.90;;;;;;5070855;28;20171;-73
2022/12/30 07:47:04;;;;;;;6.50;1.83;;;6.60;99.90;;;;;;5067817;28;20203;-73
2022/12/30 07:49:29;;;;;;;5.83;2.10;;;6.70;99.90;;;;;;5065473;28;20265;-73
2022/12/30 07:51:55;;;;;;;8.73;1.63;;;6.70;99.90;;;;;;5050035;28;20207;-73
2022/12/30 07:54:20;;;;;;;9.03;1.70;;;6.60;99.90;;;;;;5070700;28;20167;-73
2022/12/30 07:56:46;;;;;;;9.73;2.80;;;6.70;99.90;;;;;;5048361;28;20167;-74
2022/12/30 07:59:12;;;;;;;7.73;2.23;;;6.60;99.90;;;;;;5048211;28;20583;-72
2022/12/30 08:01:38;;;;;;;9.47;2.80;;;6.60;99.90;;;;;;5071546;28;20269;-73
2022/12/30 08:04:04;;;;;;;8.70;2.70;;;6.60;99.90;;;;;;5049693;28;20746;-73
2022/12/30 08:06:30;;;;;;;7.50;2.00;;;6.60;99.90;;;;;;5051303;28;20677;-74
2022/12/30 08:08:55;;;;;;;5.10;1.80;;;6.50;99.90;;;;;;5084912;22;20234;-73
2022/12/30 08:11:21;;;;;;;7.50;2.17;;;6.50;99.90;;;;;;5071980;28;20602;-71
2022/12/30 08:13:47;;;;;;;7.50;2.63;;;6.50;99.90;;;;;;5059235;28;20196;-71
2022/12/30 08:16:15;;;;;;;8.80;2.40;;;6.50;99.90;;;;;;5055452;28;20207;-72
2022/12/30 08:18:41;;;;;;;6.23;2.00;;;6.50;99.90;;;;;;5054390;28;20203;-73
2022/12/30 08:21:09;;;;;;;6.37;1.50;;;6.50;99.90;;;;;;5053097;28;20187;-73
2022/12/30 08:23:35;;;;;;;7.13;1.80;;;6.60;99.90;;;;;;5059463;28;20195;-73
2022/12/30 08:26:05;;;;;;;7.17;2.00;;;6.60;99.90;;;;;;5056602;28;20207;-73
2022/12/30 08:28:31;;;;;;;6.30;2.00;;;6.60;99.90;;;;;;5049227;28;20206;-73
2022/12/30 08:30:57;;;;;;;7.80;1.97;;;6.70;99.90;;;;;;5058487;28;20305;-73
2022/12/30 08:33:22;;;;;;;6.43;1.63;;;6.70;99.90;;;;;;5056998;28;20614;-72
2022/12/30 08:35:48;;;;;;;10.47;1.80;;;6.70;99.90;;;;;;5057372;28;20168;-73
2022/12/30 08:38:13;;;;;;;9.50;2.30;;;6.80;99.90;;;;;;5063787;28;20202;-72
2022/12/30 08:40:39;;;;;;;6.90;1.83;;;6.90;99.90;;;;;;5052930;28;20295;-73
2022/12/30 08:43:05;;;;;;;8.47;1.80;;;7.00;99.90;;;;;;5053747;28;20210;-72
2022/12/30 08:45:30;;;;;;;7.57;1.83;;;7.10;99.90;;;;;;5052357;28;20302;-73
2022/12/30 08:47:56;;;;;;;7.17;1.90;;;7.20;99.90;;;;;;5053773;28;20180;-71
2022/12/30 08:50:22;;;;;;;8.63;2.27;;;7.20;99.90;;;;;;5057683;28;20563;-72
2022/12/30 08:52:48;;;;;;;6.30;2.17;;;7.40;99.90;;;;;;5056440;28;20620;-75
2022/12/30 08:55:13;;;;;;;9.43;2.30;;;7.50;99.90;;;;;;5054011;28;20203;-73
2022/12/30 08:57:40;;;;;;;5.27;2.10;;;7.60;99.90;;;;;;5058729;28;20257;-73
2022/12/30 09:00:07;;;;;;;9.37;2.40;;;7.60;99.90;;;;;;5056410;28;20199;-73
2022/12/30 09:02:34;;;;;;;6.20;1.83;;;7.70;99.90;;;;;;5052401;28;20199;-75
2022/12/30 09:05:00;;;;;;;9.70;2.07;;;7.80;99.90;;;;;;5057643;28;20218;-74
2022/12/30 09:07:26;;;;;;;11.07;1.53;;;7.90;99.90;;;;;;5053686;28;20196;-74
2022/12/30 09:09:52;;;;;;;7.87;2.43;;;7.80;99.90;;;;;;5054960;28;20215;-75
2022/12/30 09:12:17;;;;;;;6.07;1.87;;;7.80;99.90;;;;;;5051895;28;20167;-75
2022/12/30 09:14:43;;;;;;;5.70;1.57;;;7.70;99.90;;;;;;5054593;28;20167;-73
2022/12/30 09:17:09;;;;;;;7.27;2.00;;;7.60;99.90;;;;;;5056501;28;20708;-73
2022/12/30 09:19:35;;;;;;;7.60;2.17;;;7.60;99.90;;;;;;5059502;28;20511;-74
2022/12/30 09:22:00;;;;;;;10.57;2.07;;;7.60;99.90;;;;;;5052173;28;20673;-74
2022/12/30 09:24:26;;;;;;;7.33;2.17;;;7.60;99.90;;;;;;5057975;28;20175;-74
2022/12/30 09:26:51;;;;;;;5.27;2.10;;;7.70;99.90;;;;;;5056001;28;20160;-74
2022/12/30 09:29:17;;;;;;;5.30;1.93;;;7.60;99.90;;;;;;5055526;28;20202;-74
2022/12/30 09:31:43;;;;;;;8.27;2.13;;;7.60;99.90;;;;;;5056191;28;20196;-74
2022/12/30 09:34:09;;;;;;;8.57;2.20;;;7.60;99.90;;;;;;5055788;28;20204;-74
2022/12/30 09:36:34;;;;;;;4.53;1.40;;;7.70;99.90;;;;;;5057488;28;20274;-74
2022/12/30 09:39:00;;;;;;;12.70;5.23;;;7.70;99.90;;;;;;5058245;28;20249;-74
2022/12/30 09:44:56;;;;;;;6.67;1.97;;;7.70;99.90;;;;;;5057776;28;20249;-74
2022/12/30 09:47:32;;;;;;;7.77;1.60;;;7.80;99.90;;;;;;5052555;28;20295;-74
2022/12/30 09:50:20;;;;;;;10.87;2.10;;;7.80;99.90;;;;;;5047947;28;20596;-73
2022/12/30 09:53:03;;;;;;;8.40;2.00;;;7.90;99.90;;;;;;5059417;28;20199;-73
2022/12/30 09:55:46;;;;;;;7.37;1.70;;;7.90;99.90;;;;;;5052428;28;20196;-74
2022/12/30 09:58:22;;;;;;;5.53;1.70;;;8.00;99.90;;;;;;5059394;28;20207;-75
2022/12/30 10:00:49;;;;;;;3.77;1.63;;;8.30;99.90;;;;;;5053816;28;20203;-72
2022/12/30 10:03:21;;;;;;;5.80;1.87;;;8.50;99.90;;;;;;5054177;28;20186;-75
2022/12/30 10:06:06;;;;;;;8.43;2.27;;;8.60;99.90;;;;;;5053603;28;20168;-74
2022/12/30 10:08:37;;;;;;;6.93;2.07;;;8.70;99.90;;;;;;5051478;28;20282;-75
2022/12/30 10:11:26;;;;;;;8.13;1.97;;;8.80;99.90;;;;;;5054841;28;20218;-74
2022/12/30 10:14:30;;;;;;;7.37;2.33;;;9.00;99.90;;;;;;5052916;28;20571;-73
2022/12/30 10:17:09;;;;;;;8.90;1.77;;;9.20;99.90;;;;;;5047514;28;20294;-75
2022/12/30 10:19:57;;;;;;;6.63;2.10;;;9.30;99.90;;;;;;5053512;28;20259;-74
2022/12/30 10:22:53;;;;;;;8.67;1.87;;;9.30;99.90;;;;;;5051130;28;20561;-74
2022/12/30 10:25:27;;;;;;;5.00;1.70;;;9.40;99.90;;;;;;5055001;28;20200;-76
2022/12/30 10:27:55;;;;;;;7.63;1.70;;;9.50;99.90;;;;;;5052590;28;20291;-73
2022/12/30 10:30:34;;;;;;;8.17;1.83;;;9.50;99.90;;;;;;5050374;28;20195;-75
2022/12/30 10:33:05;;;;;;;8.67;2.20;;;9.50;99.90;;;;;;5057330;28;20167;-73
2022/12/30 10:35:32;;;;;;;6.83;1.80;;;9.50;99.90;;;;;;5050662;28;20287;-74
2022/12/30 10:38:08;;;;;;;5.83;1.70;;;9.50;99.90;;;;;;5050787;28;20223;-74
2022/12/30 10:41:14;;;;;;;6.73;1.93;;;9.60;99.90;;;;;;5058374;28;20684;-73
2022/12/30 10:43:54;;;;;;;7.17;2.00;;;9.60;99.90;;;;;;5045223;28;20238;-73
2022/12/30 10:46:22;;;;;;;4.63;1.77;;;9.60;99.90;;;;;;5051976;28;20889;-73
2022/12/30 10:49:08;;;;;;;9.63;2.80;;;9.70;99.90;;;;;;5049881;28;20212;-74
2022/12/30 10:51:33;;;;;;;6.17;2.13;;;9.80;99.90;;;;;;5054574;28;20199;-73
2022/12/30 10:54:00;;;;;;;6.07;1.70;;;9.70;99.90;;;;;;5055949;28;20160;-73
2022/12/30 10:56:29;;;;;;;6.47;1.93;;;9.70;99.90;;;;;;5051686;28;20678;-73
2022/12/30 10:58:59;;;;;;;5.50;1.63;;;9.80;99.90;;;;;;5056945;28;20211;-74
2022/12/30 11:01:34;;;;;;;7.90;1.83;;;9.80;99.90;;;;;;5061806;28;20191;-74
2022/12/30 11:04:00;;;;;;;4.80;1.80;;;9.90;99.90;;;;;;5061694;28;20205;-73
2022/12/30 11:06:27;;;;;;;10.60;2.23;;;9.90;99.90;;;;;;5066418;28;20540;-74
2022/12/30 11:09:10;;;;;;;6.73;1.83;;;9.90;99.90;;;;;;5055627;28;20202;-73
2022/12/30 11:14:42;;;;;;;8.33;2.17;;;10.00;99.90;;;;;;5053822;28;20206;-74
2022/12/30 11:17:25;;;;;;;9.27;1.87;;;10.00;99.90;;;;;;5042643;28;20200;-73
2022/12/30 11:20:05;;;;;;;7.33;1.90;;;10.00;99.90;;;;;;5048334;28;20616;-74
2022/12/30 11:22:31;;;;;;;9.93;2.60;;;10.00;99.90;;;;;;5055941;28;20202;-73
2022/12/30 11:24:59;;;;;;;7.40;2.20;;;10.10;99.90;;;;;;5058348;28;20208;-73
2022/12/30 11:27:46;;;;;;;6.03;1.90;;;10.10;99.90;;;;;;5058775;28;20222;-74
2022/12/30 11:30:24;;;;;;;3.57;1.37;;;10.00;99.90;;;;;;5056555;28;20196;-73
2022/12/30 11:32:51;;;;;;;9.73;2.10;;;10.00;99.90;;;;;;5060533;28;20167;-73
2022/12/30 11:35:38;;;;;;;7.23;1.80;;;10.00;99.90;;;;;;5052772;28;20280;-74
2022/12/30 11:38:25;;;;;;;6.07;1.70;;;9.90;99.90;;;;;;5056364;28;20250;-74
2022/12/30 11:40:51;;;;;;;9.00;2.20;;;9.90;99.90;;;;;;5053933;28;20231;-75
2022/12/30 11:43:18;;;;;;;7.37;1.80;;;10.00;99.90;;;;;;5055300;28;20227;-74
2022/12/30 11:46:03;;;;;;;5.80;1.70;;;9.90;99.90;;;;;;5060626;28;20377;-74
2022/12/30 11:48:43;;;;;;;6.10;2.20;;;9.90;99.90;;;;;;5056680;28;20731;-74
2022/12/30 11:51:25;;;;;;;5.53;1.63;;;9.90;99.90;;;;;;5054985;28;20239;-73
2022/12/30 11:54:04;;;;;;;6.80;2.23;;;10.00;99.90;;;;;;5055179;28;20167;-74
2022/12/30 11:56:30;;;;;;;9.33;2.00;;;10.00;99.90;;;;;;5054187;28;20219;-75
2022/12/30 11:59:04;;;;;;;6.23;1.77;;;9.90;99.90;;;;;;5057297;28;20219;-74
2022/12/30 12:01:49;;;;;;;5.07;1.80;;;10.00;99.90;;;;;;5053484;28;20199;-74
2022/12/30 12:04:39;;;;;;;10.30;1.87;;;10.10;99.90;;;;;;5054928;28;20230;-74
2022/12/30 12:07:17;;;;;;;10.60;2.40;;;10.10;99.90;;;;;;5057904;28;20626;-74
2022/12/30 12:09:55;;;;;;;5.40;1.40;;;10.00;99.90;;;;;;5049242;28;20221;-74
2022/12/30 12:12:25;;;;;;;7.20;1.53;;;10.00;99.90;;;;;;5058093;28;20288;-74
2022/12/30 12:15:20;;;;;;;7.87;2.33;;;10.00;99.90;;;;;;5055034;28;20578;-74
2022/12/30 12:17:54;;;;;;;6.97;1.60;;;10.00;99.90;;;;;;5032095;28;20672;-75
2022/12/30 12:20:46;;;;;;;8.17;2.03;;;10.00;99.90;;;;;;5044164;28;20569;-75
2022/12/30 12:23:32;;;;;;;9.53;2.30;;;9.90;99.90;;;;;;5041910;28;20207;-73
2022/12/30 12:26:22;;;;;;;7.53;2.13;;;9.80;99.90;;;;;;5052812;28;20200;-74
2022/12/30 12:28:50;;;;;;;7.07;2.20;;;9.80;99.90;;;;;;5052611;28;20203;-74
2022/12/30 12:31:53;;;;;;;6.97;2.07;;;9.70;99.90;;;;;;5050263;28;20210;-74
2022/12/30 12:34:56;;;;;;;7.60;1.63;;;9.70;99.90;;;;;;5049363;28;20203;-74
2022/12/30 12:37:41;;;;;;;7.47;1.70;;;9.70;99.90;;;;;;5051627;28;20584;-73
2022/12/30 12:40:12;;;;;;;8.97;2.47;;;9.80;99.90;;;;;;5052717;28;20566;-72
2022/12/30 12:42:56;;;;;;;5.87;1.77;;;9.80;99.90;;;;;;5051189;28;20214;-73
2022/12/30 12:45:36;;;;;;;6.50;1.70;;;9.70;99.90;;;;;;5071542;28;20182;-74
2022/12/30 12:48:08;;;;;;;7.50;2.33;;;9.80;99.90;;;;;;5059449;28;20217;-74
2022/12/30 12:50:58;;;;;;;8.03;1.87;;;9.90;99.90;;;;;;5028104;28;20204;-74
2022/12/30 12:53:40;;;;;;;8.27;2.07;;;9.90;99.90;;;;;;5028970;28;20235;-74
2022/12/30 12:56:33;;;;;;;9.40;2.20;;;9.90;99.90;;;;;;5032009;28;20208;-72
2022/12/30 12:59:02;;;;;;;7.57;1.90;;;9.90;99.90;;;;;;5030893;28;20204;-74
2022/12/30 13:01:53;;;;;;;8.57;2.53;;;9.90;99.90;;;;;;5030198;28;20726;-74
2022/12/30 13:04:39;;;;;;;7.90;2.13;;;9.90;99.90;;;;;;5032051;28;20206;-74
2022/12/30 13:07:26;;;;;;;7.93;2.17;;;9.90;99.90;;;;;;5058826;28;20250;-74
2022/12/30 13:10:18;;;;;;;9.43;1.93;;;9.90;99.90;;;;;;5051292;28;20237;-73
2022/12/30 13:13:02;;;;;;;6.33;2.03;;;9.90;99.90;;;;;;5060660;28;20202;-73
2022/12/30 13:15:39;;;;;;;5.07;1.83;;;9.90;99.90;;;;;;5056436;28;20210;-72
2022/12/30 13:18:11;;;;;;;9.07;2.27;;;9.90;99.90;;;;;;5052671;28;20549;-74
2022/12/30 13:20:55;;;;;;;6.50;2.30;;;9.90;99.90;;;;;;5057489;28;20207;-74
2022/12/30 13:23:25;;;;;;;7.90;2.20;;;9.90;99.90;;;;;;5052445;28;20248;-74
2022/12/30 13:26:09;;;;;;;8.13;2.10;;;9.90;99.90;;;;;;5050888;28;20196;-74
2022/12/30 13:28:35;;;;;;;6.03;2.53;;;9.80;99.90;;;;;;5059728;28;20214;-74
2022/12/30 13:31:03;;;;;;;10.37;2.37;;;9.80;99.90;;;;;;5053672;28;20261;-73
2022/12/30 13:34:07;;;;;;;7.07;2.00;;;9.80;99.90;;;;;;5058378;28;20287;-74
2022/12/30 13:36:59;;;;;;;6.40;1.77;;;9.80;99.90;;;;;;5053070;28;20684;-74
2022/12/30 13:39:45;;;;;;;4.80;1.70;;;9.70;99.90;;;;;;5049252;28;20206;-74
2022/12/30 13:42:41;;;;;;;12.60;2.20;;;9.70;99.90;;;;;;5058334;28;20168;-73
2022/12/30 13:45:32;;;;;;;6.70;2.07;;;9.80;99.90;;;;;;5056277;28;20264;-72
2022/12/30 13:48:03;;;;;;;8.80;2.10;;;9.70;99.90;;;;;;5029067;28;20192;-74
2022/12/30 13:50:31;;;;;;;6.67;2.60;;;9.70;99.90;;;;;;5052710;28;20304;-74
2022/12/30 13:52:59;;;;;;;6.80;2.20;;;9.70;99.90;;;;;;5049009;28;20203;-74
2022/12/30 13:55:37;;;;;;;6.30;2.20;;;9.70;99.90;;;;;;5059262;28;20235;-74
2022/12/30 13:58:13;;;;;;;9.03;2.03;;;9.60;99.90;;;;;;5054346;28;20195;-74
2022/12/30 14:00:41;;;;;;;9.57;2.33;;;9.60;99.90;;;;;;5053526;28;20221;-75
2022/12/30 14:03:25;;;;;;;10.30;2.23;;;9.60;99.90;;;;;;5057389;28;20171;-72
2022/12/30 14:05:53;;;;;;;5.53;1.83;;;9.60;99.90;;;;;;5049619;28;20562;-74
2022/12/30 14:08:25;;;;;;;5.40;2.00;;;9.60;99.90;;;;;;5026988;28;20266;-75
2022/12/30 14:10:59;;;;;;;6.87;1.80;;;9.50;99.90;;;;;;5053990;23;20253;-74
2022/12/30 14:13:31;;;;;;;8.47;2.00;;;9.50;99.90;;;;;;5053908;28;20264;-73
2022/12/30 14:16:05;;;;;;;6.90;2.00;;;9.50;99.90;;;;;;5054397;28;20310;-73